Airfield :
LOGIN :

Register | Disclaimer

   EN    FR    IT 

 










Legend :    VFR   Marginal VFR   IFR   Intensive IFR   Very Intensive IFR
Visi :
Ceiling :
>= 8 km
>= 3000ft
5 to 8 km
1000 to 3000 ft
1500m to 5 km
500 to 1000 ft
800 to 1500m
200 to 500 ft
< 800m
< 200 ft
Symbols :   Thunderstorms  Fog  Heavy snow  Heavy precipitations  Wind > 20 kt
SIGMETs :     Misc.  Thunderstorms  Icing  Turbulence  Mountain Waves  Volcanic Ashes







- Airport Elevation : 39 ft
- IATA code : CTA


LICC - Catania Fontanarossa

CURRENT METAR :
  • 102320Z VRB01KT CAVOK 11/07 Q1015

EXPIRED METARs :
  • 102250Z 06003KT 350V110 CAVOK 12/07 Q1015
  • 102220Z 06003KT 350V090 CAVOK 11/06 Q1015
  • 102150Z 09003KT CAVOK 10/06 Q1015
  • 102120Z VRB02KT CAVOK 11/07 Q1015
  • 102050Z 27006KT CAVOK 11/07 Q1014

TAF TAF LICC
Valid from the 11 at 00:00 until the 12 at 00:00 UTC


102300Z 1100/1124 26008KT 9999 FEW030
BECMG 1120/1122 VRB05KT
No reported NOTAMs for that airfield.
2 SIGMETs reported for the Roma FIR (LIRR) :
 
Severe turbulence
LIRR SIGMET 17 VALID 102330/110230 LIIB
LIRR ROMA FIR SEV TURB FCST WI N4118 E00823 - N3629 E01313 - N3628 E01900 - N3809 E01859 - N3854 E01631 - N4009 E01536 - N4108 E01509 - N4124 E01423 - N4257 E01259 - N4329 E01316 - N4336 E01219 - N4343 E01108 - N4335 E01023 - N4310 E00946 - N4119 E00946 - N4118 E00823 FL220/390 STNR NC=
Severe turbulence
LIRR SIGMET 16 VALID 102100/102330 LIIB
LIRR ROMA FIR SEV TURB FCST WI N4118 E00823 - N3629 E01313 - N3628 E01900 - N3809 E01859 - N3854 E01631 - N4009 E01536 - N4108 E01509 - N4124 E01423 - N4257 E01259 - N4329 E01316 - N4336 E01219 - N4343 E01108 - N4335 E01023 - N4310 E00946 - N4119 E00946 - N4118 E00823 FL160/390 STNR NC=



MET'MAP, your aeronautical weather chart ! - Copyright ORBIFLY December 2007 - Disclaimer

ORBIFLY MET'MAP TEAM :

Programming & Development : Alexandra Zaïnal
Concept & Development : Baudouin d'Aumeries
Co-Development & Prog : Marc-Olivier Méhu
Technical & hardware support : Manuel Goepfert

Contact : metmap@orbifly.com




SOURCES & CREDITS :

   NOAA